Pays
Station

 

Conditions  météo  pour  Fort Myers, Page Field  -  Etats-Unis    Etats-Unis

  
13 °C
    
 
 

METAR pour Fort Myers, Page Field :

KFMY 230553Z AUTO 00000KT 10SM CLR 13/10 A3011 RMK AO2 SLP198 T01280100 10189 20128 58005

 

Voici le bulletin pour Fort Myers, Page Field - Etats-Unis.
 
Le bulletin a été fait il y a 37 minutes, à 05:53 UTC .
Le vent était calme.
 
La température était de 13 °C, avec un point de rosée à 10 °C.
La pression atmosphérique était de 1020 hPa.
L'humidité relative était de 82.0%.
 
Le ciel était clair.
 
La visibilité globale était de 16.1 kilomètres.
 

 
 
 

Pays :   A   B   C   D   E   F   G   H   I   J   K   L   M   N   O   P   Q   R   S   T   U   V   W   Y   Z

 

Partenaires :  Info Météo avec Met'info
Météo Marine avec MeteoMarine.net
Infos Site  |  Infos Légales  |  Crédits  |  Confidentialité
Contactez-nous  |  Ajouter aux favoris
© 2013-2019 METAR - Tous droits réservés